Polfoss — V2PN7 — position and weather

sailwx.info

Track history (hours):
 
Tides and Currents Weather Stations Pressure Air Temp Water Temp Dewpoint Dewpoint Depression Visibility Wind Speed Wind Dir Waves Ship Positions

Polfoss

Last reported at 2016-Feb-12 21:25 UTC. Time now 2016-Feb-13 17:19 UTC.
Position N 63°07' E 007°46'.

Length 82 m; draft 6.3 m.

Type: Cargo ship. MMSI: 305081000.

Date/timePositionNaut miles runAvg speedWind from/ knotsBaromVisibWave heightAir tempDewpointWater temp
2016-Feb-12 21:25N 63°07' E 007°46'4611.8
2016-Feb-12 17:32N 63°32' E 009°12'1313.5
2016-Feb-12 16:33N 63°42' E 009°30'7113.6
2016-Feb-12 11:20N 64°43' E 010°54'1114.3
2016-Feb-12 10:34N 64°51' E 011°13'1413.5
2016-Feb-12 09:33N 64°60' E 011°36'1413.9
2016-Feb-12 08:33N 65°12' E 011°52'7113.9
2016-Feb-12 03:27N 66°18' E 012°56'1314.3
2016-Feb-12 02:31N 66°31' E 012°58'1313.6
2016-Feb-12 01:33N 66°43' E 013°11'1413.7
2016-Feb-12 00:33N 66°55' E 013°29'1313.1
2016-Feb-11 23:33N 67°04' E 013°54'1514.8
2016-Feb-11 22:33N 67°17' E 014°13'1312.9
2016-Feb-11 21:33N 67°29' E 014°23'1514.2
2016-Feb-11 20:32N 67°43' E 014°11'  
2016-Feb-07 10:33N 69°03' E 033°03'6 6.2
2016-Feb-07 09:33N 68°56' E 033°02'0 0.0
2016-Feb-07 08:28N 68°56' E 033°02'0 0.0
2016-Feb-07 07:27N 68°56' E 033°02'0 0.0
2016-Feb-07 06:33N 68°56' E 033°02'0 0.0
2016-Feb-07 05:32N 68°56' E 033°02'0 0.0
2016-Feb-07 04:32N 68°56' E 033°02'0 0.0
2016-Feb-07 03:31N 68°56' E 033°02'0 0.0
2016-Feb-07 02:27N 68°56' E 033°02'0 0.0
2016-Feb-07 01:33N 68°56' E 033°02'0 0.0
2016-Feb-07 00:29N 68°56' E 033°02'0 0.0
2016-Feb-06 23:32N 68°56' E 033°02'0 0.0
2016-Feb-06 22:31N 68°56' E 033°02'0 0.0
2016-Feb-06 21:34N 68°56' E 033°02'0 0.0
2016-Feb-06 19:08N 68°56' E 033°02'0 0.0
2016-Feb-06 18:32N 68°56' E 033°02'0 0.0
2016-Feb-06 17:28N 68°56' E 033°02'0 0.0
2016-Feb-06 16:15N 68°56' E 033°02'0 0.0
2016-Feb-06 15:24N 68°56' E 033°02'0 0.0
2016-Feb-06 13:32N 68°56' E 033°02'0 0.0
2016-Feb-06 12:25N 68°56' E 033°02'0 0.0
2016-Feb-06 11:33N 68°56' E 033°02'0 0.0
2016-Feb-06 10:33N 68°56' E 033°02'0 0.0
2016-Feb-06 09:20N 68°56' E 033°02'0 0.0
2016-Feb-06 08:32N 68°56' E 033°02'0 0.0
2016-Feb-06 07:28N 68°56' E 033°02'0 0.0
2016-Feb-06 06:33N 68°56' E 033°02'1 0.8
2016-Feb-06 05:33N 68°57' E 033°01'1 1.0
2016-Feb-06 04:32N 68°58' E 033°03'0 0.0
2016-Feb-06 03:32N 68°58' E 033°03'0 0.0
2016-Feb-06 02:31N 68°58' E 033°03'0 0.0
2016-Feb-06 01:33N 68°58' E 033°03'0 0.0
2016-Feb-06 00:33N 68°58' E 033°03'0 0.0
2016-Feb-05 23:32N 68°58' E 033°03'0 0.0
2016-Feb-05 22:32N 68°58' E 033°03'0 0.0
2016-Feb-05 21:31N 68°58' E 033°03'0 0.0
2016-Feb-05 20:33N 68°58' E 033°03'0 0.0
2016-Feb-05 19:33N 68°58' E 033°03'0 0.0
2016-Feb-05 18:32N 68°58' E 033°03'0 0.0
2016-Feb-05 17:32N 68°58' E 033°03'0 0.0
2016-Feb-05 16:31N 68°58' E 033°03'0 0.0
2016-Feb-05 15:33N 68°58' E 033°03'0 0.0
2016-Feb-05 14:33N 68°58' E 033°03'4 4.0
2016-Feb-05 13:33N 69°02' E 033°03'322 7.0
2016-Feb-03 15:25N 69°19' E 017°59'1012.0
2016-Feb-03 14:33N 69°09' E 017°50'1614.7
2016-Feb-03 13:27N 68°60' E 017°13'101 7.7
2016-Feb-03 00:20N 67°43' E 014°15'1114.7
2016-Feb-02 23:34N 67°32' E 014°21'1413.8
2016-Feb-02 22:34N 67°18' E 014°17'1515.2
2016-Feb-02 21:33N 67°05' E 013°56'  
Track history (hours):
 
Tides and Currents Weather Stations Pressure Air Temp Water Temp Dewpoint Dewpoint Depression Visibility Wind Speed Wind Dir Waves Ship Positions

Polfoss

Last reported at 2016-Feb-12 21:25 UTC. Time now 2016-Feb-13 17:19 UTC.
Position N 63°07' E 007°46'.

Length 82 m; draft 6.3 m.

Type: Cargo ship. MMSI: 305081000.

Date/timePositionNaut miles runAvg speedWind from/ knotsBaromVisibWave heightAir tempDewpointWater temp
2016-Feb-12 21:25N 63°07' E 007°46'4611.8
2016-Feb-12 17:32N 63°32' E 009°12'1313.5
2016-Feb-12 16:33N 63°42' E 009°30'7113.6
2016-Feb-12 11:20N 64°43' E 010°54'1114.3
2016-Feb-12 10:34N 64°51' E 011°13'1413.5
2016-Feb-12 09:33N 64°60' E 011°36'1413.9
2016-Feb-12 08:33N 65°12' E 011°52'7113.9
2016-Feb-12 03:27N 66°18' E 012°56'1314.3
2016-Feb-12 02:31N 66°31' E 012°58'1313.6
2016-Feb-12 01:33N 66°43' E 013°11'1413.7
2016-Feb-12 00:33N 66°55' E 013°29'1313.1
2016-Feb-11 23:33N 67°04' E 013°54'1514.8
2016-Feb-11 22:33N 67°17' E 014°13'1312.9
2016-Feb-11 21:33N 67°29' E 014°23'1514.2
2016-Feb-11 20:32N 67°43' E 014°11'  
2016-Feb-07 10:33N 69°03' E 033°03'6 6.2
2016-Feb-07 09:33N 68°56' E 033°02'0 0.0
2016-Feb-07 08:28N 68°56' E 033°02'0 0.0
2016-Feb-07 07:27N 68°56' E 033°02'0 0.0
2016-Feb-07 06:33N 68°56' E 033°02'0 0.0
2016-Feb-07 05:32N 68°56' E 033°02'0 0.0
2016-Feb-07 04:32N 68°56' E 033°02'0 0.0
2016-Feb-07 03:31N 68°56' E 033°02'0 0.0
2016-Feb-07 02:27N 68°56' E 033°02'0 0.0
2016-Feb-07 01:33N 68°56' E 033°02'0 0.0
2016-Feb-07 00:29N 68°56' E 033°02'0 0.0
2016-Feb-06 23:32N 68°56' E 033°02'0 0.0
2016-Feb-06 22:31N 68°56' E 033°02'0 0.0
2016-Feb-06 21:34N 68°56' E 033°02'0 0.0
2016-Feb-06 19:08N 68°56' E 033°02'0 0.0
2016-Feb-06 18:32N 68°56' E 033°02'0 0.0
2016-Feb-06 17:28N 68°56' E 033°02'0 0.0
2016-Feb-06 16:15N 68°56' E 033°02'0 0.0
2016-Feb-06 15:24N 68°56' E 033°02'0 0.0
2016-Feb-06 13:32N 68°56' E 033°02'0 0.0
2016-Feb-06 12:25N 68°56' E 033°02'0 0.0
2016-Feb-06 11:33N 68°56' E 033°02'0 0.0
2016-Feb-06 10:33N 68°56' E 033°02'0 0.0
2016-Feb-06 09:20N 68°56' E 033°02'0 0.0
2016-Feb-06 08:32N 68°56' E 033°02'0 0.0
2016-Feb-06 07:28N 68°56' E 033°02'0 0.0
2016-Feb-06 06:33N 68°56' E 033°02'1 0.8
2016-Feb-06 05:33N 68°57' E 033°01'1 1.0
2016-Feb-06 04:32N 68°58' E 033°03'0 0.0
2016-Feb-06 03:32N 68°58' E 033°03'0 0.0
2016-Feb-06 02:31N 68°58' E 033°03'0 0.0
2016-Feb-06 01:33N 68°58' E 033°03'0 0.0
2016-Feb-06 00:33N 68°58' E 033°03'0 0.0
2016-Feb-05 23:32N 68°58' E 033°03'0 0.0
2016-Feb-05 22:32N 68°58' E 033°03'0 0.0
2016-Feb-05 21:31N 68°58' E 033°03'0 0.0
2016-Feb-05 20:33N 68°58' E 033°03'0 0.0
2016-Feb-05 19:33N 68°58' E 033°03'0 0.0
2016-Feb-05 18:32N 68°58' E 033°03'0 0.0
2016-Feb-05 17:32N 68°58' E 033°03'0 0.0
2016-Feb-05 16:31N 68°58' E 033°03'0 0.0
2016-Feb-05 15:33N 68°58' E 033°03'0 0.0
2016-Feb-05 14:33N 68°58' E 033°03'4 4.0
2016-Feb-05 13:33N 69°02' E 033°03'322 7.0
2016-Feb-03 15:25N 69°19' E 017°59'1012.0
2016-Feb-03 14:33N 69°09' E 017°50'1614.7
2016-Feb-03 13:27N 68°60' E 017°13'101 7.7
2016-Feb-03 00:20N 67°43' E 014°15'1114.7
2016-Feb-02 23:34N 67°32' E 014°21'1413.8
2016-Feb-02 22:34N 67°18' E 014°17'1515.2
2016-Feb-02 21:33N 67°05' E 013°56'  

Dump ship's entire track history